map of ALY home
Great Circle Mapper logo
ALY - Airport
Location
City:  Alexandria, Al Iskandariyah (Alexandria), Egypt
Name:Alexandria International Airport
Old (Alt.):El Nouzha Airport
ICAO:HEAX
IATA:ALY

Details
Type:Airport (Aerodrome, Airfield)
Use:Public/Civil, International (customs port of entry)
Latitude:3111'02"N (31.183903)
Longitude:2956'56"E (29.948889)
Datum:WGS 1984
Elevation:-6 ft (-1 m)
Variation:4.31E (WMM2015 magnetic declination)
0.09 annual change
Runways:2
Longest:7221 × 148 ft (2201 × 45 m), paved

Time
Time Zone:UTC+2 (DST+3)

Weather
METAR:HEAX 250400Z 26010KT CAVOK 25/12 Q1012 NOSIG
TAF:HEAX 241700Z 2418/2524 35010KT 9999 SCT020

Related Locations
Nearby:
Farthest:RVV: 11908 mi / 19163 km
Raivavae, Tubuai Islands, Austral Islands, PF

Find:

   beyond  
but within

Other Information
Maps:
NOTAMs:
Links:
Sources:

  
flag of Egypt
flag of Al Iskandariyah (Alexandria)
  

Airport Diagram

Airport diagram for ALY

Airport diagram (OBSOLETE) from NGA

Sectional Chart

Flight Planning
at skyvector.com

Satellite Image

Google Maps Satellite view

 

Copyright © 2004-2016 Karl L. Swartz. All rights reserved.
The Great Circle Mapper name and logo are trademarks of the Great Circle Mapper.
All other trademarks mentioned herein belong to their respective owners.
Please see credits for attibutions and further copyright information.

  Follow gcmap on Facebook Follow gcmap on Twitter Follow gcmap on Google+ GCmap on LinkedIn

hCard Microformat

Geo Microformat